Etusivu
METAR-TAF:

METAR-TAF

Lentoasemat :

Wallis, Ranska

Leveyspiiri: 13-14S, Pituuspiiri: 176-10W, korkeus merenpinnasta: 23 m

Tämänhetkinen sää

Tämä raportti tehtiin 7 tuntia ja 53 minuuttia sitten, kello 10.00 UTC
Tuuli 5 kn lännestä/lounaasta, vaihdellen etelän ja lännen välillä
Lämpötila 25°C
Kosteus 94%
Ilmanpaine 1011 hPa
Näkyvyys 10 km tai enemmän
heikkoa sadetta

METAR: NLWW 191000Z AUTO 24005KT 190V270 9999 -RA FEW017/// SCT031/// BKN039/// 25/24 Q1011 TEMPO 3000 SHRA BKN014 SCT020CB

Aika: 05:53 (17:53 UTC)

Sääennuste

Tämä raportti tehtiin 53 minuuttia sitten, kello 17.00 UTC
Ennuste voimassa 19. päivästä klo 18 UTC - 20. päivään klo 18 UTC
Tuuli 8 kn idästä
Näkyvyys 10 km tai enemmän
Muutamia pilviä 1800 ft:n korkeudessa
Hajanaisia pilviä 3000 ft:n korkeudessa

TAF: NLWW 191700Z 1918/2018 10008KT 9999 FEW018 SCT030

Säähavainnot ja -ennusteet yli 4000 lentoasemalta (METAR- ja TAF-raportit).

Käytössä olevat sääasemat on merkitty karttaan keltaisilla ja punaisilla pisteillä.

Aseta hiiri pisteen päälle nähdäksesi sääaseman nimen.

Klikkaa sitten nähdäksesi säähavainnot ja -ennusteet.

Kartan vaihtaminen: klikkaa mustalla rastilla varustettuja vihreitä pisteitä, niin voit zoomata sisään; viivalla varustettua vihreää pistettä, niin voit zoomata ulos tai vihreitä nuolia, niin pääset viereisille kartoille.


METAR-TAF: